Time;durP1;ratioP1;P1;durP2;ratioP2;P2;SDS_P1;SDS_P2;PMS_P1;PMS_P2;Temp;Humidity;BMP_temperature;BMP_pressure;BME280_temperature;BME280_humidity;BME280_pressure;Samples;Min_cycle;Max_cycle;Signal;HPM_P1;HPM_P2
2022/06/12 00:00:04;;;;;;;4.47;3.80;;;;;;;19.07;51.30;99064.03;5134090;28;20507;-92
2022/06/12 00:02:30;;;;;;;4.75;3.53;;;;;;;19.08;51.27;99061.28;5133927;28;20031;-95
2022/06/12 00:04:57;;;;;;;4.60;3.88;;;;;;;19.05;51.60;99056.03;5133627;28;20473;-93
2022/06/12 00:07:23;;;;;;;5.07;3.70;;;;;;;19.06;51.52;99064.97;5132650;27;20045;-95
2022/06/12 00:09:49;;;;;;;4.70;3.63;;;;;;;19.01;51.29;99056.31;5133603;28;20458;-96
2022/06/12 00:12:14;;;;;;;5.07;3.60;;;;;;;18.95;51.73;99051.25;5133874;28;20126;-93
2022/06/12 00:14:40;;;;;;;7.30;4.10;;;;;;;19.02;51.63;99072.41;5139337;27;20487;-94
2022/06/12 00:17:06;;;;;;;4.55;3.60;;;;;;;18.95;51.60;99070.97;5133837;28;20384;-94
2022/06/12 00:19:32;;;;;;;5.22;3.88;;;;;;;18.87;51.97;99059.78;5133381;28;20036;-95
2022/06/12 00:21:59;;;;;;;4.85;4.05;;;;;;;18.63;53.16;99045.84;5133252;28;20071;-96
2022/06/12 00:24:25;;;;;;;5.07;3.70;;;;;;;18.66;54.26;99077.97;5132735;28;20048;-94
2022/06/12 00:26:54;;;;;;;5.10;3.72;;;;;;;18.35;55.00;99046.50;5132385;28;20492;-93
2022/06/12 00:29:22;;;;;;;4.60;3.58;;;;;;;18.22;55.19;99057.91;5132805;28;20043;-94
2022/06/12 00:31:51;;;;;;;6.37;4.00;;;;;;;18.12;55.80;99061.19;5135384;27;20046;-93
2022/06/12 00:34:18;;;;;;;;;;;;;;;18.03;57.03;99076.00;5133132;28;20767;-95
2022/06/12 00:36:44;;;;;;;6.60;4.00;;;;;;;17.89;57.12;99068.66;5132793;27;19950;-94
2022/06/12 00:39:11;;;;;;;5.28;4.00;;;;;;;17.53;58.09;99058.81;5132445;28;20063;-94
2022/06/12 00:41:39;;;;;;;4.57;4.05;;;;;;;17.83;55.82;99060.91;5132815;28;20087;-93
2022/06/12 00:44:06;;;;;;;5.13;4.07;;;;;;;18.15;55.46;99063.69;5142346;27;20042;-91
2022/06/12 00:46:40;;;;;;;4.80;4.00;;;;;;;18.18;55.34;99047.41;5132419;27;20043;-93
2022/06/12 00:49:11;;;;;;;5.07;3.80;;;;;;;18.00;55.06;99042.06;5123567;27;20040;-93
2022/06/12 00:51:38;;;;;;;6.32;4.07;;;;;;;18.50;53.82;99059.13;5145815;27;20122;-93
2022/06/12 00:54:06;;;;;;;5.53;3.90;;;;;;;18.53;54.12;99064.31;5137593;27;20043;-95
2022/06/12 00:56:37;;;;;;;6.10;3.78;;;;;;;18.63;53.34;99053.94;5132005;28;20515;-94
2022/06/12 00:59:08;;;;;;;6.47;3.90;;;;;;;18.56;54.34;99056.06;5118408;28;20071;-95
2022/06/12 01:01:36;;;;;;;5.00;3.83;;;;;;;18.42;55.02;99055.97;5111144;28;20127;-93
2022/06/12 01:07:15;;;;;;;5.35;4.18;;;;;;;18.16;56.78;99070.84;5124002;27;20374;-95
2022/06/12 01:09:44;;;;;;;5.28;4.10;;;;;;;17.77;58.37;99062.03;5119370;28;20051;-93
2022/06/12 01:12:13;;;;;;;5.00;4.03;;;;;;;17.50;59.23;99050.00;5124480;27;20047;-95
2022/06/12 01:14:44;;;;;;;7.93;3.90;;;;;;;17.33;59.97;99059.81;5124328;27;20040;-94
2022/06/12 01:17:11;;;;;;;6.38;4.45;;;;;;;17.14;60.73;99056.31;5119346;27;20135;-92
2022/06/12 01:19:41;;;;;;;7.43;4.28;;;;;;;16.92;61.89;99043.06;5129224;28;20047;-93
2022/06/12 01:22:34;;;;;;;5.38;4.40;;;;;;;17.07;61.89;99079.03;5126354;28;20489;-94
2022/06/12 01:25:13;;;;;;;5.40;4.43;;;;;;;16.87;62.51;99059.38;5130114;28;20039;-93
2022/06/12 01:27:56;;;;;;;5.70;4.63;;;;;;;16.83;62.63;99066.72;5119578;27;20489;-91
2022/06/12 01:30:33;;;;;;;5.13;4.15;;;;;;;16.70;63.60;99060.16;5121105;27;20039;-93
2022/06/12 01:33:08;;;;;;;6.38;4.60;;;;;;;16.76;63.41;99077.78;5114353;28;20038;-92
2022/06/12 01:35:42;;;;;;;6.15;4.95;;;;;;;16.79;63.51;99085.72;5124565;27;20040;-93
2022/06/12 01:38:16;;;;;;;9.32;4.93;;;;;;;16.68;63.68;99071.94;5122150;28;20094;-92
2022/06/12 01:40:50;;;;;;;7.35;4.25;;;;;;;16.68;64.02;99079.97;5118763;27;20047;-93
2022/06/12 01:43:20;;;;;;;7.63;4.65;;;;;;;16.59;63.32;99039.19;5123679;28;20043;-92
2022/06/12 01:45:55;;;;;;;7.20;4.70;;;;;;;16.63;63.39;99056.00;5131069;28;20092;-91
2022/06/12 01:48:30;;;;;;;5.63;4.60;;;;;;;16.77;62.92;99066.97;5115273;28;20092;-93
2022/06/12 01:51:05;;;;;;;6.65;4.60;;;;;;;16.88;62.39;99066.50;5121225;27;20051;-93
2022/06/12 01:53:38;;;;;;;6.95;4.45;;;;;;;16.95;61.89;99059.00;5120676;28;20131;-92
2022/06/12 01:56:13;;;;;;;7.43;4.80;;;;;;;16.85;62.05;99045.16;5120116;28;20071;-91
2022/06/12 01:58:46;;;;;;;9.55;4.50;;;;;;;16.99;62.00;99066.84;5119415;28;20043;-92
2022/06/12 02:01:22;;;;;;;5.88;4.30;;;;;;;16.82;62.46;99064.09;5117678;27;20097;-92
2022/06/12 02:03:54;;;;;;;7.40;4.55;;;;;;;16.69;63.04;99076.34;5123667;27;20044;-92
2022/06/12 02:06:25;;;;;;;6.15;4.53;;;;;;;16.52;63.62;99064.56;5120125;28;20053;-91
2022/06/12 02:08:57;;;;;;;6.95;4.70;;;;;;;16.53;63.50;99058.25;5126961;27;20109;-91
2022/06/12 02:14:39;;;;;;;8.82;5.18;;;;;;;16.43;64.02;99059.63;5132897;27;20371;-94
2022/06/12 02:17:09;;;;;;;6.22;4.28;;;;;;;16.42;64.27;99055.22;5133516;27;20040;-94
2022/06/12 02:19:41;;;;;;;7.72;4.70;;;;;;;16.27;64.33;99046.06;5133245;27;20039;-93
2022/06/12 02:22:17;;;;;;;5.82;4.60;;;;;;;16.31;64.48;99061.06;5133716;27;20039;-93
2022/06/12 02:24:49;;;;;;;7.20;4.82;;;;;;;16.27;64.39;99055.94;5133194;27;20050;-95
2022/06/12 02:27:18;;;;;;;7.53;5.07;;;;;;;16.33;64.44;99077.09;5115778;28;20566;-92
2022/06/12 02:29:51;;;;;;;5.85;4.45;;;;;;;16.15;64.70;99046.59;5133271;27;20183;-93
2022/06/12 02:32:23;;;;;;;7.60;4.80;;;;;;;16.31;64.35;99063.75;5132684;27;20522;-95
2022/06/12 02:34:54;;;;;;;8.18;4.68;;;;;;;16.30;64.70;99053.94;5119999;28;20044;-94
2022/06/12 02:37:25;;;;;;;7.65;5.00;;;;;;;16.39;64.17;99071.44;5133117;27;20114;-91
2022/06/12 02:39:56;;;;;;;7.00;4.60;;;;;;;16.29;64.41;99054.91;5128277;28;20583;-93
2022/06/12 02:42:26;;;;;;;7.03;4.68;;;;;;;16.38;64.42;99075.09;5132855;27;20109;-93
2022/06/12 02:44:59;;;;;;;7.68;5.25;;;;;;;16.22;64.69;99062.38;5130960;28;20035;-94
2022/06/12 02:47:30;;;;;;;5.57;4.63;;;;;;;16.15;64.82;99066.25;5132725;27;20520;-93
2022/06/12 02:49:57;;;;;;;7.10;4.93;;;;;;;16.10;65.13;99070.09;5132061;27;20500;-94
2022/06/12 02:52:33;;;;;;;6.72;5.20;;;;;;;16.07;65.02;99059.50;5132512;27;20044;-93
2022/06/12 02:55:07;;;;;;;7.10;5.03;;;;;;;16.19;65.45;99081.28;5132453;27;20507;-95
2022/06/12 02:57:50;;;;;;;6.70;4.90;;;;;;;15.90;65.99;99062.94;5132060;27;20066;-94
2022/06/12 03:00:24;;;;;;;6.90;5.20;;;;;;;15.92;66.03;99061.06;5128270;28;20571;-92
2022/06/12 03:02:55;;;;;;;6.63;4.88;;;;;;;15.88;66.25;99076.41;5129164;28;20476;-95
2022/06/12 03:05:26;;;;;;;8.32;4.88;;;;;;;15.86;67.01;99085.47;5132307;27;20092;-94
2022/06/12 03:08:00;;;;;;;8.05;5.40;;;;;;;15.75;67.28;99070.72;5132331;27;20092;-94
2022/06/12 03:10:33;;;;;;;9.43;5.13;;;;;;;15.78;67.46;99089.34;5132137;27;20039;-94
2022/06/12 03:13:01;;;;;;;9.10;5.28;;;;;;;15.73;67.73;99090.50;5131993;27;20112;-93
2022/06/12 03:15:36;;;;;;;6.97;5.00;;;;;;;15.74;67.62;99090.44;5131631;27;20039;-94
2022/06/12 03:18:07;;;;;;;8.35;5.43;;;;;;;15.79;67.33;99093.78;5132291;27;20533;-93
2022/06/12 03:20:44;;;;;;;6.60;5.30;;;;;;;15.71;67.10;99062.84;5132197;27;20519;-93
2022/06/12 03:23:22;;;;;;;7.03;4.80;;;;;;;15.73;67.35;99071.72;5131464;28;20039;-93
2022/06/12 03:25:52;;;;;;;7.00;5.22;;;;;;;15.71;67.34;99090.53;5117958;27;20066;-93
2022/06/12 03:28:27;;;;;;;8.38;5.20;;;;;;;15.65;68.29;99095.25;5118363;28;20039;-93
2022/06/12 03:31:04;;;;;;;8.60;5.53;;;;;;;15.54;68.59;99099.25;5118460;28;20034;-95
2022/06/12 03:33:39;;;;;;;7.72;5.32;;;;;;;15.39;69.45;99097.22;5118531;28;20080;-94
2022/06/12 03:36:11;;;;;;;7.88;5.60;;;;;;;15.22;70.07;99089.88;5118355;28;20028;-94
2022/06/12 03:38:43;;;;;;;8.55;5.80;;;;;;;15.18;70.37;99080.25;5118415;28;20047;-92
2022/06/12 03:41:16;;;;;;;7.50;5.32;;;;;;;15.42;69.74;99105.16;5118487;28;20396;-93
2022/06/12 03:43:53;;;;;;;7.75;5.65;;;;;;;15.13;69.98;99061.66;5114340;28;20044;-94
2022/06/12 03:46:27;;;;;;;7.90;5.85;;;;;;;15.26;70.03;99087.94;5118025;28;20040;-94
2022/06/12 03:48:58;;;;;;;9.13;5.65;;;;;;;15.23;70.19;99086.28;5113718;28;20431;-93
2022/06/12 03:51:31;;;;;;;9.90;5.97;;;;;;;15.22;70.06;99080.97;5118397;28;20046;-91
2022/06/12 03:54:00;;;;;;;8.88;6.00;;;;;;;15.14;70.52;99073.28;5117353;28;20036;-93
2022/06/12 03:59:38;;;;;;;7.20;5.43;;;;;;;15.37;70.38;99105.31;5092834;27;20363;-93
2022/06/12 04:02:08;;;;;;;9.25;5.35;;;;;;;15.37;70.71;99110.69;5092446;28;20045;-96
2022/06/12 04:04:36;;;;;;;7.32;5.43;;;;;;;15.34;70.65;99102.78;5092851;28;20052;-94
2022/06/12 04:07:06;;;;;;;6.80;5.20;;;;;;;15.31;70.77;99102.91;5092647;28;20072;-94
2022/06/12 04:09:37;;;;;;;7.15;5.13;;;;;;;15.39;70.76;99106.13;5091917;28;20279;-93
2022/06/12 04:12:07;;;;;;;10.80;5.50;;;;;;;15.45;70.96;99117.56;5092059;28;20044;-94
2022/06/12 04:14:40;;;;;;;8.35;5.68;;;;;;;15.36;70.91;99100.91;5093080;28;20044;-93
2022/06/12 04:17:06;;;;;;;9.18;5.45;;;;;;;15.38;70.71;99101.72;5091886;28;20096;-93
2022/06/12 04:19:58;;;;;;;12.68;6.07;;;;;;;15.38;71.09;99107.06;5092374;28;20036;-93
2022/06/12 04:22:22;;;;;;;8.18;5.25;;;;;;;15.47;71.37;99121.03;5090729;28;20075;-93
2022/06/12 04:24:52;;;;;;;6.90;5.03;;;;;;;15.38;71.69;99096.38;5092152;28;20114;-93
2022/06/12 04:27:28;;;;;;;8.00;5.53;;;;;;;15.52;71.75;99111.84;5091595;28;20074;-94
2022/06/12 04:29:57;;;;;;;8.10;5.75;;;;;;;15.62;71.51;99107.00;5090024;28;20040;-94
2022/06/12 04:32:23;;;;;;;9.27;5.57;;;;;;;15.70;71.56;99103.97;5091355;28;20131;-94
2022/06/12 04:34:50;;;;;;;7.53;5.60;;;;;;;15.75;71.46;99110.94;5091541;28;20553;-94
2022/06/12 04:37:19;;;;;;;7.55;5.57;;;;;;;15.89;71.51;99121.06;5091220;28;20040;-93
2022/06/12 04:39:46;;;;;;;8.82;5.65;;;;;;;15.84;71.26;99096.25;5091525;28;20048;-94
2022/06/12 04:42:14;;;;;;;8.95;5.65;;;;;;;15.93;70.83;99095.84;5091595;28;20036;-94
2022/06/12 04:44:40;;;;;;;8.05;5.40;;;;;;;16.04;70.88;99105.25;5091698;28;20040;-94
2022/06/12 04:47:11;;;;;;;10.73;5.80;;;;;;;16.08;70.91;99096.13;5090976;28;20032;-96
2022/06/12 04:49:37;;;;;;;9.30;6.00;;;;;;;16.27;70.76;99106.91;5091768;28;20041;-93
2022/06/12 04:52:06;;;;;;;6.72;5.30;;;;;;;16.77;69.31;99099.19;5091844;28;20470;-94
2022/06/12 04:54:33;;;;;;;9.70;5.28;;;;;;;17.54;66.68;99102.69;5091485;28;20127;-94
2022/06/12 04:56:59;;;;;;;6.63;5.40;;;;;;;18.16;64.15;99097.75;5091491;28;20048;-94
2022/06/12 04:59:26;;;;;;;7.70;5.38;;;;;;;18.59;61.13;99085.53;5091365;28;20063;-94
2022/06/12 05:01:52;;;;;;;7.93;5.22;;;;;;;19.02;60.29;99088.56;5091654;28;20094;-95
2022/06/12 05:04:21;;;;;;;7.15;5.38;;;;;;;19.41;58.84;99089.03;5091481;28;20048;-92
2022/06/12 05:06:49;;;;;;;8.30;5.85;;;;;;;19.76;56.32;99099.66;5090713;28;20040;-94
2022/06/12 05:09:16;;;;;;;8.68;4.63;;;;;;;20.16;56.28;99125.09;5086701;28;20140;-95
2022/06/12 05:11:43;;;;;;;6.45;4.88;;;;;;;20.33;55.83;99105.16;5077790;28;20092;-93
2022/06/12 05:14:09;;;;;;;9.90;5.20;;;;;;;20.56;54.91;99125.34;5078316;28;20037;-95
2022/06/12 05:16:39;;;;;;;8.15;5.53;;;;;;;20.93;53.35;99121.22;5077966;28;20071;-95
2022/06/12 05:19:08;;;;;;;9.75;5.72;;;;;;;21.07;53.04;99116.75;5077793;28;20044;-94
2022/06/12 05:21:36;;;;;;;11.48;6.28;;;;;;;20.86;51.97;99114.47;5077399;28;20528;-94
2022/06/12 05:24:02;;;;;;;7.43;5.75;;;;;;;20.96;53.11;99112.03;5076906;28;20094;-95
2022/06/12 05:26:30;;;;;;;8.52;5.65;;;;;;;21.10;53.28;99103.91;5077492;28;20109;-92
2022/06/12 05:28:56;;;;;;;9.57;5.20;;;;;;;21.31;51.74;99125.09;5077246;28;20402;-94
2022/06/12 05:31:22;;;;;;;8.48;5.88;;;;;;;21.57;51.37;99127.97;5077446;28;20052;-95
2022/06/12 05:33:48;;;;;;;7.53;5.60;;;;;;;21.64;50.63;99115.75;5077653;28;20041;-95
2022/06/12 05:36:16;;;;;;;8.32;5.25;;;;;;;22.06;50.83;99119.22;5077335;28;20094;-93
2022/06/12 05:38:44;;;;;;;7.05;5.07;;;;;;;22.12;49.82;99116.06;5077261;28;20134;-96
2022/06/12 05:41:10;;;;;;;9.52;5.30;;;;;;;22.04;50.33;99113.06;5076943;28;20135;-92
2022/06/12 05:43:40;;;;;;;8.07;4.80;;;;;;;22.07;50.61;99104.69;5077814;28;20489;-95
2022/06/12 05:46:06;;;;;;;9.52;4.57;;;;;;;22.26;49.91;99109.75;5077236;28;20127;-94
2022/06/12 05:48:32;;;;;;;5.78;4.72;;;;;;;22.48;49.19;99114.53;5076275;28;20064;-95
2022/06/12 05:50:59;;;;;;;7.07;4.60;;;;;;;22.57;49.08;99100.31;5077648;28;20045;-92
2022/06/12 05:53:28;;;;;;;6.93;4.80;;;;;;;22.57;48.97;99108.44;5076770;28;20057;-94
2022/06/12 05:55:57;;;;;;;6.93;4.85;;;;;;;22.67;49.13;99123.09;5076907;28;20040;-92
2022/06/12 05:58:25;;;;;;;6.28;4.32;;;;;;;22.72;49.18;99101.06;5076823;28;20409;-92
2022/06/12 06:00:52;;;;;;;8.00;5.23;;;;;;;23.08;47.64;99103.00;5076646;28;20493;-92
2022/06/12 06:03:18;;;;;;;6.82;5.10;;;;;;;23.26;47.48;99097.19;5076482;28;20055;-92
2022/06/12 06:05:47;;;;;;;7.38;4.93;;;;;;;23.48;47.06;99115.44;5076265;28;20043;-94
2022/06/12 06:08:13;;;;;;;6.63;4.38;;;;;;;23.55;46.59;99112.16;5073176;28;20052;-94
2022/06/12 06:10:40;;;;;;;5.15;3.97;;;;;;;23.31;42.43;99109.44;5076993;28;20051;-94
2022/06/12 06:13:08;;;;;;;4.95;3.88;;;;;;;23.36;42.90;99106.38;5076306;28;20494;-94
2022/06/12 06:15:37;;;;;;;5.30;3.97;;;;;;;23.18;43.54;99108.59;5076899;28;20047;-95
2022/06/12 06:18:03;;;;;;;5.32;3.72;;;;;;;23.52;42.50;99115.09;5076322;28;20067;-95
2022/06/12 06:20:37;;;;;;;5.18;3.75;;;;;;;23.76;42.04;99114.25;5076194;28;20050;-95
2022/06/12 06:23:04;;;;;;;6.70;4.10;;;;;;;23.83;43.94;99118.22;5075889;28;20040;-94
2022/06/12 06:25:31;;;;;;;5.55;3.95;;;;;;;23.94;41.53;99110.16;5076118;28;20051;-94
2022/06/12 06:27:58;;;;;;;8.15;4.72;;;;;;;24.03;42.87;99118.56;5076327;28;20044;-92
2022/06/12 06:30:26;;;;;;;6.80;3.92;;;;;;;24.19;43.01;99114.53;5074604;28;20041;-94
2022/06/12 06:32:52;;;;;;;6.32;4.00;;;;;;;24.14;43.11;99113.19;5075917;28;20131;-94
2022/06/12 06:35:19;;;;;;;4.97;4.00;;;;;;;24.23;42.37;99120.59;5075156;28;20569;-94
2022/06/12 06:37:47;;;;;;;7.55;4.00;;;;;;;24.28;43.42;99128.41;5075539;28;20043;-94
2022/06/12 06:40:18;;;;;;;5.95;3.95;;;;;;;24.22;43.65;99120.72;5075056;28;20052;-94
2022/06/12 06:42:44;;;;;;;5.05;4.07;;;;;;;24.10;42.95;99114.41;5075653;28;20123;-94
2022/06/12 06:48:09;;;;;;;6.22;4.07;;;;;;;24.40;42.66;99122.00;5092801;27;20359;-92
2022/06/12 06:50:35;;;;;;;5.63;4.35;;;;;;;24.27;43.20;99130.25;5092358;28;20206;-91
2022/06/12 06:53:02;;;;;;;5.57;3.97;;;;;;;24.34;42.99;99128.78;5091733;28;20047;-95
2022/06/12 06:55:29;;;;;;;5.22;3.80;;;;;;;24.53;41.91;99127.38;5090916;28;20036;-92
2022/06/12 06:57:57;;;;;;;7.50;4.38;;;;;;;24.32;41.95;99127.16;5085819;28;20037;-94
2022/06/12 07:00:26;;;;;;;6.47;4.10;;;;;;;23.92;43.08;99112.13;5091775;28;20406;-94
2022/06/12 07:02:52;;;;;;;8.43;4.50;;;;;;;24.12;42.34;99131.44;5090971;28;20147;-91
2022/06/12 07:05:22;;;;;;;5.30;4.20;;;;;;;24.10;41.55;99125.25;5091292;28;20484;-94
2022/06/12 07:07:48;;;;;;;4.80;4.13;;;;;;;23.95;43.00;99117.31;5088873;28;20044;-93
2022/06/12 07:10:17;;;;;;;5.95;4.45;;;;;;;24.33;42.39;99132.50;5090822;28;20389;-93
2022/06/12 07:12:43;;;;;;;6.45;4.55;;;;;;;24.30;41.60;99115.56;5090400;28;20543;-94
2022/06/12 07:15:11;;;;;;;5.15;4.15;;;;;;;24.34;41.25;99107.03;5092183;28;20044;-93
2022/06/12 07:17:36;;;;;;;5.53;4.13;;;;;;;24.48;41.77;99124.09;5090651;28;20040;-92
2022/06/12 07:20:05;;;;;;;6.05;4.13;;;;;;;24.25;42.28;99117.78;5091212;28;20051;-93
2022/06/12 07:22:34;;;;;;;6.95;4.97;;;;;;;24.03;41.34;99121.25;5090820;28;20489;-92
2022/06/12 07:25:00;;;;;;;6.78;4.55;;;;;;;24.32;42.60;99127.16;5090012;28;20059;-94
2022/06/12 07:27:26;;;;;;;6.70;4.82;;;;;;;23.78;43.08;99115.00;5089308;28;20044;-91
2022/06/12 07:29:51;;;;;;;7.40;4.60;;;;;;;23.91;43.08;99126.66;5088899;28;20040;-90
2022/06/12 07:32:17;;;;;;;5.35;4.53;;;;;;;24.32;42.94;99117.16;5088901;28;20563;-91
2022/06/12 07:34:43;;;;;;;6.75;4.80;;;;;;;24.67;42.10;99120.84;5088397;28;20041;-91
2022/06/12 07:37:09;;;;;;;5.20;4.70;;;;;;;24.83;41.18;99115.03;5089720;28;20043;-91
2022/06/12 07:39:36;;;;;;;5.70;4.63;;;;;;;25.14;40.83;99116.13;5088772;28;20513;-90
2022/06/12 07:42:03;;;;;;;5.05;4.55;;;;;;;24.54;42.21;99116.34;5090531;28;20370;-91
2022/06/12 07:44:31;;;;;;;6.60;5.00;;;;;;;24.94;41.18;99124.06;5089962;28;20525;-92
2022/06/12 07:46:58;;;;;;;5.93;4.82;;;;;;;24.39;42.20;99120.25;5086777;28;20163;-90
2022/06/12 07:49:25;;;;;;;7.13;4.57;;;;;;;24.85;40.72;99104.88;5086583;28;20040;-93
2022/06/12 07:51:55;;;;;;;6.70;4.82;;;;;;;25.19;40.50;99108.44;5089839;28;20090;-92
2022/06/12 07:54:21;;;;;;;6.25;4.53;;;;;;;25.20;40.97;99072.97;5089608;28;20052;-93
2022/06/12 07:56:49;;;;;;;5.80;4.47;;;;;;;25.82;40.56;99104.09;5090338;28;20504;-94
2022/06/12 07:59:15;;;;;;;5.88;4.47;;;;;;;25.69;40.52;99102.53;5077457;28;20040;-91
2022/06/12 08:01:42;;;;;;;7.50;4.55;;;;;;;25.34;39.73;99095.47;5074042;28;20112;-90
2022/06/12 08:04:09;;;;;;;4.75;4.03;;;;;;;25.61;39.82;99098.63;5078371;28;20044;-90
2022/06/12 08:06:38;;;;;;;6.13;4.90;;;;;;;25.80;39.06;99100.63;5087743;28;20044;-91
2022/06/12 08:09:07;;;;;;;7.03;4.72;;;;;;;25.57;39.19;99083.53;5072057;28;20105;-89
2022/06/12 08:11:38;;;;;;;6.22;4.82;;;;;;;25.55;39.89;99093.69;5071446;28;21743;-89
2022/06/12 08:14:05;;;;;;;6.30;4.97;;;;;;;25.58;40.41;99098.84;5072515;28;20064;-90
2022/06/12 08:16:32;;;;;;;7.88;5.22;;;;;;;25.73;40.16;99083.06;5072713;28;20036;-91
2022/06/12 08:18:58;;;;;;;7.00;4.80;;;;;;;25.46;39.58;99069.94;5073936;28;20037;-92
2022/06/12 08:21:25;;;;;;;6.90;4.55;;;;;;;25.64;39.77;99074.84;5074586;28;20029;-89
2022/06/12 08:23:53;;;;;;;7.60;4.45;;;;;;;26.18;38.75;99092.94;5073818;28;20528;-90
2022/06/12 08:26:24;;;;;;;5.40;4.57;;;;;;;26.28;37.09;99079.34;5071265;28;20060;-91
2022/06/12 08:28:53;;;;;;;5.20;4.53;;;;;;;26.22;38.26;99078.03;5074326;28;20094;-90
2022/06/12 08:31:26;;;;;;;5.57;4.68;;;;;;;26.34;38.37;99085.13;5071853;28;20037;-89
2022/06/12 08:33:56;;;;;;;6.80;4.43;;;;;;;26.58;37.67;99073.97;5074890;28;20507;-88
2022/06/12 08:36:22;;;;;;;4.90;4.30;;;;;;;26.74;38.12;99070.75;5073513;28;20494;-90
2022/06/12 08:38:48;;;;;;;6.32;4.78;;;;;;;26.68;36.64;99078.63;5073412;28;20039;-90
2022/06/12 08:41:20;;;;;;;4.95;4.32;;;;;;;26.83;36.11;99094.47;5073668;28;20498;-91
2022/06/12 08:43:53;;;;;;;5.90;4.47;;;;;;;26.97;37.19;99092.38;5072868;28;20528;-91
2022/06/12 08:46:27;;;;;;;5.72;4.75;;;;;;;27.01;35.45;99105.59;5073522;28;20102;-90
2022/06/12 08:48:59;;;;;;;6.13;4.88;;;;;;;27.07;35.91;99081.50;5076339;28;20039;-91
2022/06/12 08:51:37;;;;;;;5.05;4.55;;;;;;;27.19;34.65;99075.75;5071984;28;20540;-91
2022/06/12 08:54:09;;;;;;;5.85;4.55;;;;;;;27.45;35.41;99094.38;5071083;28;20436;-91
2022/06/12 08:56:41;;;;;;;5.47;4.35;;;;;;;27.24;35.18;99094.50;5073342;28;20449;-91
2022/06/12 08:59:15;;;;;;;6.07;4.95;;;;;;;27.20;36.02;99096.63;5076568;28;20036;-91
2022/06/12 09:01:43;;;;;;;6.50;4.68;;;;;;;27.28;35.80;99082.28;5074163;28;20375;-92
2022/06/12 09:04:11;;;;;;;6.80;4.23;;;;;;;27.42;35.31;99086.50;5076555;28;20127;-93
2022/06/12 09:06:44;;;;;;;5.18;4.40;;;;;;;27.50;34.77;99100.31;5073834;28;20040;-91
2022/06/12 09:09:22;;;;;;;6.05;4.90;;;;;;;26.67;36.33;99088.66;5072515;28;20040;-91
2022/06/12 09:11:51;;;;;;;5.53;4.38;;;;;;;27.15;36.32;99104.38;5072351;28;20048;-90
2022/06/12 09:14:33;;;;;;;7.57;4.40;;;;;;;27.48;36.19;99085.03;5073275;28;20045;-92
2022/06/12 09:17:10;;;;;;;6.43;4.45;;;;;;;27.69;35.90;99096.72;5071707;28;20037;-90
2022/06/12 09:19:44;;;;;;;4.80;4.30;;;;;;;27.92;34.43;99105.53;5072977;28;20509;-91
2022/06/12 09:22:16;;;;;;;6.20;4.30;;;;;;;27.69;34.93;99098.59;5074256;28;20130;-91
2022/06/12 09:24:51;;;;;;;5.72;4.30;;;;;;;28.03;34.28;99099.06;5072980;28;20037;-93
2022/06/12 09:27:26;;;;;;;4.80;3.95;;;;;;;28.27;33.65;99079.47;5071589;28;20102;-92
2022/06/12 09:29:58;;;;;;;6.38;3.95;;;;;;;28.30;32.58;99112.00;5073078;28;20043;-93
2022/06/12 09:32:37;;;;;;;5.97;3.92;;;;;;;28.16;33.61;99096.91;5074119;28;20033;-90
2022/06/12 09:35:14;;;;;;;6.38;4.22;;;;;;;28.32;33.65;99098.16;5073193;28;20048;-92
2022/06/12 09:41:05;;;;;;;4.78;4.07;;;;;;;28.48;33.64;99087.53;5090917;27;20398;-93
2022/06/12 09:43:39;;;;;;;6.10;4.07;;;;;;;28.03;33.75;99093.59;5090292;28;20090;-90
2022/06/12 09:46:15;;;;;;;5.90;4.00;;;;;;;28.28;33.64;99105.81;5088080;28;20048;-92
2022/06/12 09:48:56;;;;;;;5.55;4.30;;;;;;;28.47;33.79;99086.63;5091712;28;20040;-91
2022/06/12 09:51:36;;;;;;;4.65;4.00;;;;;;;28.23;32.57;99075.28;5091126;28;20071;-89
2022/06/12 09:54:40;;;;;;;;;;;;;;;;;;;;;
2022/06/12 09:57:51;;;;;;;6.68;4.05;;;;;;;28.34;32.07;99077.00;5092957;28;19924;-93
2022/06/12 10:00:31;;;;;;;4.93;4.20;;;;;;;28.37;32.29;99055.69;5072103;28;20041;-91
2022/06/12 10:03:05;;;;;;;5.75;4.10;;;;;;;28.47;32.17;99074.81;5091519;28;20044;-91
2022/06/12 10:05:41;;;;;;;5.05;4.32;;;;;;;28.35;31.78;99059.59;5089322;28;20044;-93
2022/06/12 10:08:12;;;;;;;5.75;3.90;;;;;;;28.23;32.42;99078.03;5091401;28;20064;-90
2022/06/12 10:10:43;;;;;;;4.78;3.80;;;;;;;28.15;31.55;99064.22;5092267;28;20494;-90
2022/06/12 10:13:14;;;;;;;5.15;3.92;;;;;;;28.16;31.62;99071.44;5091424;28;20108;-94
2022/06/12 10:15:45;;;;;;;5.85;4.00;;;;;;;28.05;32.00;99062.38;5089906;28;20040;-91
2022/06/12 10:18:16;;;;;;;5.75;3.92;;;;;;;28.32;31.72;99055.25;5089228;28;20397;-93
2022/06/12 10:20:46;;;;;;;4.43;3.90;;;;;;;27.96;31.48;99065.97;5083540;28;20446;-91
2022/06/12 10:23:12;;;;;;;5.38;4.10;;;;;;;28.16;32.28;99066.81;5091981;28;20048;-92
2022/06/12 10:25:51;;;;;;;5.05;4.05;;;;;;;28.27;31.54;99061.19;5092006;28;20090;-93
2022/06/12 10:28:28;;;;;;;5.53;4.13;;;;;;;28.53;31.40;99054.25;5091608;28;20119;-93
2022/06/12 10:31:04;;;;;;;5.00;4.03;;;;;;;28.35;32.49;99063.19;5076416;28;20040;-93
2022/06/12 10:33:31;;;;;;;4.53;3.90;;;;;;;28.13;31.41;99042.50;5086055;28;20036;-92
2022/06/12 10:35:59;;;;;;;6.33;4.03;;;;;;;28.31;31.67;99039.03;5090722;28;20400;-92
2022/06/12 10:38:28;;;;;;;6.23;4.37;;;;;;;28.41;31.48;99064.44;5090263;28;20047;-90
2022/06/12 10:40:56;;;;;;;6.80;3.90;;;;;;;28.52;30.93;99064.34;5084605;28;20036;-92
2022/06/12 10:43:31;;;;;;;6.05;4.20;;;;;;;28.60;31.94;99060.84;5091047;28;20482;-92
2022/06/12 10:46:04;;;;;;;6.65;4.03;;;;;;;28.84;31.09;99050.25;5077498;28;20039;-93
2022/06/12 10:48:34;;;;;;;5.05;4.07;;;;;;;28.87;31.40;99049.06;5087472;28;20044;-91
2022/06/12 10:51:06;;;;;;;4.60;3.83;;;;;;;29.09;31.80;99039.59;5080441;28;20032;-91
2022/06/12 10:53:34;;;;;;;5.18;4.07;;;;;;;28.88;31.08;99054.38;5074357;28;20052;-92
2022/06/12 10:56:12;;;;;;;4.20;3.80;;;;;;;28.98;30.08;99054.34;5076299;28;20051;-91
2022/06/12 10:59:17;;;;;;;4.82;4.05;;;;;;;28.95;29.65;99043.69;5077576;28;20040;-92
2022/06/12 11:01:56;;;;;;;6.93;4.03;;;;;;;29.17;30.31;99041.56;5077052;28;20066;-91
2022/06/12 11:04:35;;;;;;;5.28;3.92;;;;;;;28.92;29.68;99035.78;5073151;28;20171;-92
2022/06/12 11:07:16;;;;;;;4.85;3.70;;;;;;;28.86;29.97;99039.13;5076825;28;20045;-92
2022/06/12 11:09:56;;;;;;;5.75;3.85;;;;;;;28.77;30.91;99023.59;5076648;28;20499;-92
2022/06/12 11:12:48;;;;;;;5.32;3.90;;;;;;;28.90;30.34;99023.25;5075646;28;20044;-93
2022/06/12 11:15:28;;;;;;;4.55;3.75;;;;;;;29.01;30.58;99006.63;5074933;28;20044;-93
2022/06/12 11:18:01;;;;;;;4.35;3.80;;;;;;;29.27;30.78;99026.78;5073833;28;20060;-93
2022/06/12 11:20:35;;;;;;;5.80;4.10;;;;;;;29.18;30.60;99019.50;5073460;28;20076;-91
2022/06/12 11:23:16;;;;;;;5.47;3.90;;;;;;;28.06;31.70;99024.94;5075444;28;20071;-94
2022/06/12 11:25:54;;;;;;;6.43;3.83;;;;;;;28.36;32.19;99012.06;5071925;28;20052;-92
2022/06/12 11:28:31;;;;;;;7.82;4.05;;;;;;;28.63;31.67;99003.09;5075683;28;20048;-92
2022/06/12 11:31:09;;;;;;;5.97;3.92;;;;;;;28.79;29.99;99021.59;5074317;28;20039;-90
2022/06/12 11:33:51;;;;;;;;;;;;;;;28.30;30.52;99016.28;5073829;28;20751;-91
2022/06/12 11:36:27;;;;;;;5.95;3.95;;;;;;;28.47;30.66;99009.16;5076100;28;19969;-92
2022/06/12 11:39:12;;;;;;;5.10;3.85;;;;;;;28.91;30.61;99020.38;5076206;28;20059;-92
2022/06/12 11:41:53;;;;;;;5.60;3.80;;;;;;;29.13;29.84;99027.34;5076698;28;20040;-92
2022/06/12 11:44:40;;;;;;;5.38;4.05;;;;;;;28.84;29.76;98994.59;5068918;28;20032;-93
2022/06/12 11:47:18;;;;;;;6.07;3.72;;;;;;;29.03;30.01;98996.38;5077005;28;20056;-92
2022/06/12 11:49:56;;;;;;;5.60;3.75;;;;;;;28.91;29.85;98994.84;5066068;28;20049;-92
2022/06/12 11:52:37;;;;;;;5.07;4.00;;;;;;;28.86;30.09;99012.63;5074880;28;20056;-91
2022/06/12 11:55:24;;;;;;;4.57;3.72;;;;;;;29.04;29.25;98998.13;5074869;28;20044;-92
2022/06/12 11:58:01;;;;;;;4.65;4.07;;;;;;;29.10;29.55;99002.13;5074245;28;20265;-92
2022/06/12 12:00:36;;;;;;;4.20;3.70;;;;;;;29.02;29.32;98987.31;5073806;28;20044;-91
2022/06/12 12:03:24;;;;;;;4.90;3.72;;;;;;;29.13;30.16;98993.63;5074053;28;20041;-91
2022/06/12 12:06:06;;;;;;;4.60;3.70;;;;;;;29.07;29.44;98986.84;5074031;28;20043;-91
2022/06/12 12:08:48;;;;;;;6.28;3.65;;;;;;;28.71;30.22;98981.28;5076242;28;20378;-91